This is the latest recevied weather packets stored in our database for station/object KC5AV. If no packets are shown the sender has not sent any weather packets the latest 10 day(s).
| Time | Temp. | Humidity | Pressure | Rain* | Wind** | Luminosity | Snow |
|---|---|---|---|---|---|---|---|
| 1777915191 | 25.56° C | 48% | 1015.4 hPa | 0 mm | - | 896 W/m² | - |
| 1777914889 | 25° C | 49% | 1015.7 hPa | 0 mm | - | 893 W/m² | - |
| 1777914585 | 25° C | 48% | 1015.6 hPa | 0 mm | - | 925 W/m² | - |
| 1777914282 | 25° C | 50% | 1015.9 hPa | 0 mm | - | 918 W/m² | - |
| 1777913979 | 24.44° C | 49% | 1015.7 hPa | 0 mm | - | 905 W/m² | - |
| 1777913675 | 25° C | 45% | 1015.9 hPa | 0 mm | - | 910 W/m² | - |
| 1777913372 | 25° C | 48% | 1016 hPa | 0 mm | - | 886 W/m² | - |
| 1777913069 | 25° C | 50% | 1016.1 hPa | 0 mm | - | 849 W/m² | - |
| 1777912765 | 25° C | 50% | 1016.1 hPa | 0 mm | - | 890 W/m² | - |
| 1777912460 | 24.44° C | 52% | 1016 hPa | 0 mm | - | 880 W/m² | - |
| 1777912157 | 24.44° C | 52% | 1016.1 hPa | 0 mm | - | 864 W/m² | - |
| 1777911853 | 25° C | 51% | 1016.4 hPa | 0 mm | - | 818 W/m² | - |
| 1777911550 | 24.44° C | 51% | 1016.2 hPa | 0 mm | - | 831 W/m² | - |
| 1777911246 | 23.89° C | 54% | 1016.4 hPa | 0 mm | - | 831 W/m² | - |
| 1777910944 | 23.89° C | 52% | 1016.5 hPa | 0 mm | - | 743 W/m² | - |
| 1777910641 | 23.33° C | 55% | 1016.3 hPa | 0 mm | - | 831 W/m² | - |
| 1777910338 | 23.89° C | 53% | 1016.5 hPa | 0 mm | - | 799 W/m² | - |
| 1777910035 | 23.89° C | 53% | 1016.3 hPa | 0 mm | - | 799 W/m² | - |
| 1777909732 | 23.89° C | 56% | 1016.6 hPa | 0 mm | - | 648 W/m² | - |
| 1777909429 | 22.78° C | 58% | 1016.6 hPa | 0 mm | - | 807 W/m² | - |
| 1777909127 | 22.78° C | 54% | 1016.5 hPa | 0 mm | - | 785 W/m² | - |
| 1777908825 | 22.78° C | 54% | 1016.6 hPa | 0 mm | - | 604 W/m² | - |
| 1777908521 | 22.78° C | 56% | 1016.5 hPa | 0 mm | - | 759 W/m² | - |
| 1777908218 | 23.33° C | 56% | 1016.5 hPa | 0 mm | - | 711 W/m² | - |
| 1777907914 | 22.22° C | 58% | 1016.6 hPa | 0 mm | - | 675 W/m² | - |
* Rain latest hour (hover to see other rain measurements)
** Current wind speed in m/s (hover to see current wind gust speed)